Time;durP1;ratioP1;P1;durP2;ratioP2;P2;SDS_P1;SDS_P2;PMS_P1;PMS_P2;Temp;Humidity;BMP_temperature;BMP_pressure;BME280_temperature;BME280_humidity;BME280_pressure;Samples;Min_cycle;Max_cycle;Signal;HPM_P1;HPM_P2
2022/02/28 00:00:17;;;;;;;;;11.75;11.75;;;;;9.76;40.28;102159.06;2121289;27;48092;-52
2022/02/28 00:01:23;;;;;;;;;11.80;10.40;;;;;9.77;40.20;102163.47;2112738;27;47140;-52
2022/02/28 00:02:23;;;;;;;;;12.40;12.40;;;;;9.76;40.08;102163.47;2119424;27;47784;-53
2022/02/28 00:03:24;;;;;;;;;11.50;10.25;;;;;9.74;40.33;102164.34;2121028;27;47531;-53
2022/02/28 00:04:25;;;;;;;;;12.50;12.50;;;;;9.74;40.21;102161.69;2120871;27;47544;-55
2022/02/28 00:05:26;;;;;;;;;12.80;12.80;;;;;9.74;40.40;102161.69;2130292;27;47802;-51
2022/02/28 00:06:26;;;;;;;;;8.75;8.75;;;;;9.73;40.38;102156.41;2130624;27;47688;-53
2022/02/28 00:07:27;;;;;;;;;12.00;10.25;;;;;9.73;40.40;102154.63;2129851;27;47363;-54
2022/02/28 00:08:28;;;;;;;;;11.50;11.00;;;;;9.75;40.42;102159.94;2130139;27;47617;-54
2022/02/28 00:09:28;;;;;;;;;12.75;12.50;;;;;9.72;40.45;102154.63;2130520;27;46660;-53
2022/02/28 00:10:29;;;;;;;;;13.00;13.00;;;;;9.73;40.46;102157.28;2130175;27;47982;-52
2022/02/28 00:11:29;;;;;;;;;14.25;13.75;;;;;9.73;40.52;102153.75;2128085;27;47338;-54
2022/02/28 00:12:29;;;;;;;;;14.25;12.25;;;;;9.71;40.53;102156.41;2112542;27;47273;-51
2022/02/28 00:13:30;;;;;;;;;11.50;10.50;;;;;9.71;40.47;102158.16;2112677;27;47579;-54
2022/02/28 00:14:30;;;;;;;;;14.00;13.25;;;;;9.71;40.65;102158.16;2121628;27;47178;-53
2022/02/28 00:15:31;;;;;;;;;10.00;10.00;;;;;9.70;40.54;102154.63;2121524;27;47841;-56
2022/02/28 00:16:32;;;;;;;;;11.50;11.50;;;;;9.69;40.34;102162.56;2121524;27;48016;-53
2022/02/28 00:17:33;;;;;;;;;11.75;11.75;;;;;9.68;40.84;102153.75;2121728;27;47730;-55
2022/02/28 00:18:34;;;;;;;;;15.00;12.40;;;;;9.67;40.48;102157.28;2121531;27;46423;-55
2022/02/28 00:19:34;;;;;;;;;12.50;12.50;;;;;9.67;40.65;102165.22;2121845;27;47502;-54
2022/02/28 00:20:35;;;;;;;;;11.25;9.25;;;;;9.66;40.56;102165.22;2103008;28;47587;-54
2022/02/28 00:21:35;;;;;;;;;12.75;12.00;;;;;9.66;40.57;102171.41;2103308;28;47980;-54
2022/02/28 00:22:36;;;;;;;;;9.50;9.50;;;;;9.65;40.64;102169.59;2122060;27;47245;-51
2022/02/28 00:23:37;;;;;;;;;15.40;14.00;;;;;9.65;40.60;102172.25;2130450;27;47999;-54
2022/02/28 00:24:37;;;;;;;;;13.50;12.75;;;;;9.65;40.68;102174.03;2126799;27;47953;-50
2022/02/28 00:25:38;;;;;;;;;12.00;12.00;;;;;9.63;40.70;102170.47;2121475;27;47604;-54
2022/02/28 00:26:38;;;;;;;;;12.50;12.50;;;;;9.64;40.56;102177.56;2121426;27;48109;-54
2022/02/28 00:27:39;;;;;;;;;10.00;10.00;;;;;9.63;40.91;102175.78;2121385;27;47475;-53
2022/02/28 00:28:40;;;;;;;;;10.00;10.00;;;;;9.61;40.79;102170.47;2120469;27;47908;-55
2022/02/28 00:29:40;;;;;;;;;13.00;9.25;;;;;9.61;40.76;102174.88;2120975;27;45600;-51
2022/02/28 00:30:41;;;;;;;;;13.25;11.50;;;;;9.61;40.61;102166.94;2129275;27;47421;-56
2022/02/28 00:31:41;;;;;;;;;13.00;12.25;;;;;9.61;40.78;102175.78;2121311;27;47189;-55
2022/02/28 00:32:42;;;;;;;;;10.25;10.25;;;;;9.61;40.64;102177.53;2121327;27;47644;-51
2022/02/28 00:33:42;;;;;;;;;9.00;9.00;;;;;9.60;40.59;102174.00;2121344;27;47370;-54
2022/02/28 00:34:42;;;;;;;;;15.00;12.25;;;;;9.59;40.58;102177.53;2121333;27;47383;-53
2022/02/28 00:35:43;;;;;;;;;10.25;10.00;;;;;9.59;40.76;102171.34;2123759;27;47767;-52
2022/02/28 00:36:43;;;;;;;;;10.75;10.75;;;;;9.59;40.74;102174.00;2130255;27;48311;-53
2022/02/28 00:37:44;;;;;;;;;11.50;11.50;;;;;9.58;40.87;102174.88;2124227;27;47932;-53
2022/02/28 00:38:44;;;;;;;;;11.25;11.25;;;;;9.57;40.83;102176.66;2121720;27;47842;-56
2022/02/28 00:39:45;;;;;;;;;10.00;10.00;;;;;9.56;40.76;102172.22;2103010;28;47224;-52
2022/02/28 00:40:47;;;;;;;;;11.80;10.60;;;;;9.57;41.00;102181.06;2107533;27;47666;-55
2022/02/28 00:41:47;;;;;;;;;13.00;12.40;;;;;9.55;40.93;102181.06;2130191;27;48010;-51
2022/02/28 00:42:48;;;;;;;;;12.25;12.00;;;;;9.54;40.72;102178.41;2122112;27;47148;-54
2022/02/28 00:43:48;;;;;;;;;14.00;11.75;;;;;9.53;40.85;102180.16;2121605;27;47498;-51
2022/02/28 00:44:49;;;;;;;;;12.50;10.00;;;;;9.53;40.89;102177.50;2121226;27;47252;-55
2022/02/28 00:45:49;;;;;;;;;10.25;10.25;;;;;9.53;40.75;102171.28;2121269;27;47772;-53
2022/02/28 00:46:50;;;;;;;;;13.50;13.50;;;;;9.53;40.76;102173.94;2113239;27;45902;-53
2022/02/28 00:47:50;;;;;;;;;10.75;10.75;;;;;9.51;40.78;102173.94;2120606;27;47395;-54
2022/02/28 00:48:51;;;;;;;;;11.25;11.25;;;;;9.49;40.98;102178.34;2125302;27;48066;-55
2022/02/28 00:49:51;;;;;;;;;9.75;8.25;;;;;9.50;41.00;102171.28;2121269;27;47549;-54
2022/02/28 00:50:52;;;;;;;;;9.50;8.50;;;;;9.50;40.98;102173.94;2121981;27;47730;-55
2022/02/28 00:51:52;;;;;;;;;12.00;10.75;;;;;9.50;40.77;102176.59;2130134;27;48323;-53
2022/02/28 00:52:53;;;;;;;;;12.50;10.75;;;;;9.49;41.11;102177.47;2129816;27;48309;-54
2022/02/28 00:53:53;;;;;;;;;11.50;11.50;;;;;9.49;40.76;102170.41;2129997;27;47720;-53
2022/02/28 00:54:54;;;;;;;;;9.25;9.25;;;;;9.48;41.26;102181.00;2130058;27;47467;-49
2022/02/28 00:55:54;;;;;;;;;13.75;13.75;;;;;9.47;41.06;102172.16;2130118;27;47907;-52
2022/02/28 00:56:56;;;;;;;;;10.00;9.75;;;;;9.48;41.20;102175.69;2130205;27;47765;-51
2022/02/28 00:57:56;;;;;;;;;8.60;8.60;;;;;9.47;40.99;102171.28;2123940;27;48341;-56
2022/02/28 00:58:57;;;;;;;;;12.75;12.25;;;;;9.46;41.22;102175.69;2121154;27;47609;-54
2022/02/28 00:59:57;;;;;;;;;13.00;9.75;;;;;9.46;41.12;102180.09;2121526;27;47741;-53
2022/02/28 01:00:58;;;;;;;;;12.00;12.00;;;;;9.46;41.31;102180.09;2121204;27;47619;-55
2022/02/28 01:01:58;;;;;;;;;11.50;11.50;;;;;9.46;41.13;102190.72;2121489;27;47674;-55
2022/02/28 01:02:59;;;;;;;;;11.00;11.00;;;;;9.44;41.21;102183.63;2120865;27;48011;-50
2022/02/28 01:03:59;;;;;;;;;9.50;9.50;;;;;9.45;41.02;102184.53;2105416;27;48092;-51
2022/02/28 01:05:00;;;;;;;;;12.75;12.75;;;;;9.44;41.29;102186.28;2111653;27;47091;-50
2022/02/28 01:06:00;;;;;;;;;11.00;10.00;;;;;9.44;41.05;102194.22;2123790;27;47761;-50
2022/02/28 01:07:01;;;;;;;;;8.75;8.75;;;;;9.44;40.81;102194.22;2121105;27;47968;-52
2022/02/28 01:08:03;;;;;;;;;11.00;9.50;;;;;9.44;40.96;102191.59;2111877;27;47389;-53
2022/02/28 01:09:04;;;;;;;;;11.20;11.20;;;;;9.44;41.02;102196.00;2116911;27;47689;-54
2022/02/28 01:10:08;;;;;;;;;10.00;10.00;;;;;9.42;41.01;102192.47;2129912;27;47953;-54
2022/02/28 01:11:08;;;;;;;;;12.40;12.40;;;;;9.42;41.16;102197.75;2129762;27;47782;-51
2022/02/28 01:12:09;;;;;;;;;9.75;9.50;;;;;9.42;41.27;102195.09;2126259;27;48238;-50
2022/02/28 01:13:10;;;;;;;;;11.75;11.75;;;;;9.40;41.18;102187.16;2121406;27;47633;-52
2022/02/28 01:14:11;;;;;;;;;10.20;7.00;;;;;9.41;41.24;102196.88;2121013;27;47412;-55
2022/02/28 01:15:13;;;;;;;;;11.25;11.25;;;;;9.41;41.22;102193.34;2121125;27;48015;-56
2022/02/28 01:16:13;;;;;;;;;9.80;9.20;;;;;9.40;41.31;102200.41;2121316;27;47187;-53
2022/02/28 01:17:15;;;;;;;;;10.00;8.75;;;;;9.39;41.02;102206.53;2121120;27;47221;-53
2022/02/28 01:18:16;;;;;;;;;9.00;8.60;;;;;9.39;40.99;102201.25;2121087;27;48054;-49
2022/02/28 01:19:17;;;;;;;;;9.60;9.20;;;;;9.38;41.06;102201.25;2120756;27;47626;-54
2022/02/28 01:20:18;;;;;;;;;12.25;11.00;;;;;9.38;41.18;102195.94;2121165;27;47584;-54
2022/02/28 01:21:19;;;;;;;;;12.20;12.20;;;;;9.37;41.25;102204.78;2120928;27;48178;-51
2022/02/28 01:22:19;;;;;;;;;13.25;13.25;;;;;9.37;41.20;102199.47;2123012;27;46555;-51
2022/02/28 01:23:20;;;;;;;;;9.00;9.00;;;;;9.37;41.12;102196.81;2129804;27;47483;-54
2022/02/28 01:24:20;;;;;;;;;11.00;11.00;;;;;9.35;40.94;102196.81;2129584;27;47647;-52
2022/02/28 01:25:21;;;;;;;;;11.00;11.00;;;;;9.36;41.04;102192.41;2122300;27;48112;-53
2022/02/28 01:26:21;;;;;;;;;13.25;12.75;;;;;9.35;41.17;102187.97;2130787;27;48209;-55
2022/02/28 01:27:22;;;;;;;;;11.50;9.25;;;;;9.34;41.38;102192.38;2127945;27;47623;-53
2022/02/28 01:28:22;;;;;;;;;8.50;7.00;;;;;9.33;41.18;102192.38;2122736;27;47260;-54
2022/02/28 01:29:23;;;;;;;;;7.25;7.25;;;;;9.33;41.33;102189.75;2122130;27;48122;-52
2022/02/28 01:30:24;;;;;;;;;10.40;10.20;;;;;9.32;41.24;102193.25;2122552;27;47530;-54
2022/02/28 01:31:25;;;;;;;;;10.50;10.50;;;;;9.31;41.12;102195.03;2122619;27;48122;-57
2022/02/28 01:32:25;;;;;;;;;10.25;10.00;;;;;9.32;41.44;102187.97;2122608;27;47808;-53
2022/02/28 01:33:26;;;;;;;;;12.50;10.50;;;;;9.31;41.32;102194.16;2122739;27;47609;-55
2022/02/28 01:34:26;;;;;;;;;12.75;10.75;;;;;9.30;41.15;102192.38;2122965;27;47736;-51
2022/02/28 01:35:27;;;;;;;;;13.50;13.50;;;;;9.30;41.17;102192.38;2122730;27;47324;-51
2022/02/28 01:36:27;;;;;;;;;13.50;11.00;;;;;9.29;41.21;102191.50;2122536;27;47713;-52
2022/02/28 01:37:28;;;;;;;;;11.75;11.00;;;;;9.28;41.21;102186.19;2122524;27;46295;-55
2022/02/28 01:38:28;;;;;;;;;11.00;11.00;;;;;9.28;41.13;102196.78;2122092;27;47770;-52
2022/02/28 01:39:29;;;;;;;;;10.75;10.75;;;;;9.28;41.25;102195.00;2122435;27;47439;-54
2022/02/28 01:40:29;;;;;;;;;12.75;11.25;;;;;9.27;41.51;102190.56;2122600;27;47407;-53
2022/02/28 01:41:30;;;;;;;;;14.75;11.25;;;;;9.28;41.42;102200.31;2122430;27;47282;-55
2022/02/28 01:42:30;;;;;;;;;9.75;9.25;;;;;9.26;41.35;102191.44;2122806;27;47580;-53
2022/02/28 01:43:31;;;;;;;;;9.25;9.25;;;;;9.27;41.19;102200.28;2125698;27;47156;-54
2022/02/28 01:44:31;;;;;;;;;10.25;10.25;;;;;9.25;41.33;102194.09;2131297;27;47217;-54
2022/02/28 01:45:32;;;;;;;;;10.25;10.25;;;;;9.25;41.43;102192.31;2124543;27;47771;-52
2022/02/28 01:46:34;;;;;;;;;8.50;8.50;;;;;9.25;41.39;102194.97;2105517;27;47379;-54
2022/02/28 01:47:36;;;;;;;;;10.80;8.40;;;;;9.23;41.38;102193.19;2113248;27;47669;-52
2022/02/28 01:48:36;;;;;;;;;9.00;8.00;;;;;9.24;41.14;102194.97;2125492;27;46701;-52
2022/02/28 01:49:36;;;;;;;;;9.75;9.75;;;;;9.22;41.18;102189.66;2122303;27;48382;-52
2022/02/28 01:50:37;;;;;;;;;12.50;12.50;;;;;9.22;41.27;102191.41;2123309;27;47608;-53
2022/02/28 01:51:39;;;;;;;;;8.50;8.50;;;;;9.21;41.51;102197.59;2122257;27;48274;-54
2022/02/28 01:52:44;;;;;;;;;11.80;11.60;;;;;9.19;41.28;102187.00;2113229;27;47870;-51
2022/02/28 01:53:44;;;;;;;;;7.80;7.80;;;;;9.19;41.44;102181.69;2113637;27;47424;-52
2022/02/28 01:54:45;;;;;;;;;8.50;7.25;;;;;9.18;41.27;102184.34;2104194;28;47088;-52
2022/02/28 01:55:45;;;;;;;;;12.40;12.20;;;;;9.17;41.40;102185.22;2109674;27;47903;-53
2022/02/28 01:56:46;;;;;;;;;8.50;8.50;;;;;9.16;41.53;102186.97;2130554;27;47913;-53
2022/02/28 01:57:48;;;;;;;;;14.50;13.25;;;;;9.16;41.46;102183.44;2122649;27;47023;-51
2022/02/28 01:58:48;;;;;;;;;7.60;7.60;;;;;9.16;41.53;102183.44;2122588;27;46598;-52
2022/02/28 01:59:50;;;;;;;;;8.50;8.50;;;;;9.14;41.30;102181.63;2122389;27;47363;-53
2022/02/28 02:00:51;;;;;;;;;11.20;11.20;;;;;9.14;41.45;102179.00;2122099;27;47543;-52
2022/02/28 02:01:51;;;;;;;;;11.25;11.00;;;;;9.14;41.30;102178.09;2122797;27;46023;-53
2022/02/28 02:02:52;;;;;;;;;13.50;11.50;;;;;9.15;41.56;102174.63;2122513;27;47951;-49
2022/02/28 02:03:52;;;;;;;;;11.50;11.50;;;;;9.15;41.48;102179.91;2122661;27;47378;-50
2022/02/28 02:04:53;;;;;;;;;9.00;9.00;;;;;9.14;41.37;102179.00;2122148;27;47740;-51
2022/02/28 02:05:53;;;;;;;;;10.25;10.25;;;;;9.14;41.48;102173.69;2122032;27;47399;-51
2022/02/28 02:06:54;;;;;;;;;13.25;12.00;;;;;9.13;41.60;102174.56;2122349;27;47906;-53
2022/02/28 02:07:54;;;;;;;;;11.50;10.75;;;;;9.14;41.29;102172.81;2122438;27;47802;-51
2022/02/28 02:08:55;;;;;;;;;12.25;12.25;;;;;9.14;41.41;102175.47;2122518;27;47051;-49
2022/02/28 02:09:57;;;;;;;;;14.25;12.50;;;;;9.12;41.32;102175.44;2121984;27;47393;-52
2022/02/28 02:10:59;;;;;;;;;8.60;7.80;;;;;9.13;41.44;102171.91;2122312;27;47843;-50
2022/02/28 02:12:00;;;;;;;;;9.60;9.20;;;;;9.12;41.30;102172.78;2121846;27;47205;-51
2022/02/28 02:13:01;;;;;;;;;10.60;9.20;;;;;9.12;41.48;102175.44;2122407;27;47787;-51
2022/02/28 02:14:02;;;;;;;;;11.80;10.20;;;;;9.12;41.48;102171.91;2122143;27;47442;-49
2022/02/28 02:15:06;;;;;;;;;13.40;10.80;;;;;9.11;41.43;102167.50;2122270;27;46469;-52
2022/02/28 02:16:06;;;;;;;;;11.80;11.80;;;;;9.10;41.34;102168.38;2122168;27;47661;-49
2022/02/28 02:17:07;;;;;;;;;10.75;10.50;;;;;9.09;41.39;102167.50;2122220;27;47419;-52
2022/02/28 02:18:07;;;;;;;;;8.00;8.00;;;;;9.10;41.26;102168.38;2122048;27;47589;-51
2022/02/28 02:19:11;;;;;;;;;13.00;13.00;;;;;9.08;41.34;102164.84;2122394;27;47363;-53
2022/02/28 02:20:33;;;;;;;;;13.20;9.40;;;;;9.09;41.32;102169.25;2121647;27;47361;-50
2022/02/28 02:21:33;;;;;;;;;11.40;11.40;;;;;9.08;41.20;102170.13;2087270;28;47756;-51
2022/02/28 02:22:33;;;;;;;;;13.00;11.00;;;;;9.07;41.30;102173.66;2086477;28;48032;-51
2022/02/28 02:23:34;;;;;;;;;10.75;10.75;;;;;9.07;41.55;102165.72;2087499;28;47904;-53
2022/02/28 02:24:34;;;;;;;;;9.75;9.75;;;;;9.07;41.36;102171.88;2095551;28;47208;-49
2022/02/28 02:25:36;;;;;;;;;12.00;12.00;;;;;9.07;41.32;102169.25;2089595;28;47388;-53
2022/02/28 02:26:36;;;;;;;;;11.80;10.60;;;;;9.08;41.25;102167.47;2087178;28;47657;-53
2022/02/28 02:27:37;;;;;;;;;10.75;8.75;;;;;9.06;41.27;102170.13;2087736;28;47524;-50
2022/02/28 02:28:37;;;;;;;;;8.50;8.25;;;;;9.06;41.41;102170.13;2087387;28;47386;-53
2022/02/28 02:29:38;;;;;;;;;14.25;12.75;;;;;9.06;41.45;102166.59;2087387;28;47406;-54
2022/02/28 02:30:39;;;;;;;;;12.00;9.75;;;;;9.05;41.19;102171.00;2087156;28;48186;-51
2022/02/28 02:31:39;;;;;;;;;8.50;8.50;;;;;9.06;41.27;102166.59;2088032;28;47247;-54
2022/02/28 02:32:41;;;;;;;;;11.00;10.75;;;;;9.05;41.45;102170.13;2095796;28;47967;-53
2022/02/28 02:33:43;;;;;;;;;11.00;8.80;;;;;9.04;41.33;102165.69;2095660;28;48039;-55
2022/02/28 02:34:45;;;;;;;;;11.00;9.20;;;;;9.04;41.26;102173.63;2095391;28;48036;-52
2022/02/28 02:35:53;;;;;;;;;9.40;9.00;;;;;9.03;41.28;102172.75;2095486;28;47152;-52
2022/02/28 02:36:54;;;;;;;;;11.40;11.40;;;;;9.02;41.34;102170.97;2095583;28;48017;-50
2022/02/28 02:37:54;;;;;;;;;8.00;7.75;;;;;9.02;41.54;102167.41;2095766;28;47725;-50
2022/02/28 02:38:55;;;;;;;;;11.25;9.00;;;;;9.01;41.32;102166.53;2086923;28;47171;-51
2022/02/28 02:39:55;;;;;;;;;10.00;10.00;;;;;9.01;41.42;102171.81;2078830;28;47479;-51
2022/02/28 02:40:56;;;;;;;;;12.25;11.00;;;;;9.00;41.35;102169.16;2095585;28;47809;-53
2022/02/28 02:41:57;;;;;;;;;9.25;8.50;;;;;9.00;41.22;102171.81;2086668;28;47926;-52
2022/02/28 02:42:57;;;;;;;;;8.25;8.25;;;;;8.99;41.34;102172.69;2086975;28;48202;-54
2022/02/28 02:43:58;;;;;;;;;12.50;12.00;;;;;8.99;41.45;102176.22;2096031;28;47463;-50
2022/02/28 02:44:58;;;;;;;;;7.00;7.00;;;;;8.99;41.35;102175.34;2095467;28;47962;-50
2022/02/28 02:45:59;;;;;;;;;10.00;10.00;;;;;8.97;41.44;102170.03;2095920;28;47838;-51
2022/02/28 02:46:59;;;;;;;;;11.75;11.75;;;;;8.97;41.50;102175.34;2095330;28;48049;-51
2022/02/28 02:48:14;;;;;;;;;7.00;6.00;;;;;8.98;41.31;102176.22;2095653;28;47582;-53
2022/02/28 02:49:14;;;;;;;;;8.60;8.60;;;;;8.97;41.40;102177.09;2095702;28;47714;-50
2022/02/28 02:50:15;;;;;;;;;10.25;9.50;;;;;8.95;41.32;102174.44;2095349;28;47921;-52
2022/02/28 02:51:17;;;;;;;;;10.00;10.00;;;;;8.96;41.41;102167.38;2095117;28;47220;-50
2022/02/28 02:52:17;;;;;;;;;9.20;9.20;;;;;8.95;41.39;102169.16;2087806;28;47607;-52
2022/02/28 02:53:18;;;;;;;;;5.25;4.00;;;;;8.95;41.47;102170.91;2089651;28;47544;-51
2022/02/28 02:54:19;;;;;;;;;10.00;8.40;;;;;8.95;41.52;102169.16;2095780;28;48408;-51
2022/02/28 02:55:19;;;;;;;;;9.25;9.25;;;;;8.94;41.40;102177.06;2095486;28;47973;-54
2022/02/28 02:56:20;;;;;;;;;11.50;9.25;;;;;8.94;41.42;102167.38;2095459;28;47339;-53
2022/02/28 02:57:20;;;;;;;;;10.00;10.00;;;;;8.92;41.35;102162.94;2095428;28;47479;-52
2022/02/28 02:58:21;;;;;;;;;8.75;7.25;;;;;8.92;41.12;102165.59;2095394;28;47653;-48
2022/02/28 02:59:21;;;;;;;;;12.00;8.25;;;;;8.91;41.21;102163.81;2108926;27;47919;-52
2022/02/28 03:00:22;;;;;;;;;11.25;11.00;;;;;8.90;41.31;102164.69;2129750;27;47740;-53
2022/02/28 03:01:22;;;;;;;;;9.00;9.00;;;;;8.90;41.47;102164.69;2130387;27;47915;-51
2022/02/28 03:02:23;;;;;;;;;11.75;10.00;;;;;8.89;41.44;102157.59;2130710;27;47886;-52
2022/02/28 03:03:23;;;;;;;;;11.50;9.75;;;;;8.90;41.58;102165.59;2121519;27;47566;-52
2022/02/28 03:04:23;;;;;;;;;11.00;11.00;;;;;8.88;41.76;102164.66;2120816;27;47756;-50
2022/02/28 03:05:24;;;;;;;;;9.00;8.75;;;;;8.88;41.38;102163.78;2129343;27;47594;-51
2022/02/28 03:06:26;;;;;;;;;10.25;9.25;;;;;8.87;41.50;102162.88;2130491;27;46994;-51
2022/02/28 03:07:26;;;;;;;;;8.40;8.00;;;;;8.85;41.59;102160.22;2130607;27;46675;-52
2022/02/28 03:08:27;;;;;;;;;12.75;11.50;;;;;8.85;41.43;102169.94;2130902;27;47573;-54
2022/02/28 03:09:29;;;;;;;;;9.50;7.75;;;;;8.84;41.62;102161.09;2130503;27;47219;-54
2022/02/28 03:10:29;;;;;;;;;13.00;11.20;;;;;8.83;41.54;102167.28;2130800;27;47198;-50
2022/02/28 03:11:30;;;;;;;;;11.00;11.00;;;;;8.83;41.68;102163.75;2130140;27;47357;-51
2022/02/28 03:12:30;;;;;;;;;12.25;10.50;;;;;8.82;41.39;102164.63;2129100;27;47773;-53
2022/02/28 03:13:31;;;;;;;;;10.75;10.75;;;;;8.82;41.52;102167.28;2112390;27;47493;-54
2022/02/28 03:14:31;;;;;;;;;9.25;7.00;;;;;8.82;41.58;102164.63;2112509;27;47456;-51
2022/02/28 03:15:31;;;;;;;;;11.00;11.00;;;;;8.82;41.64;102167.28;2103623;28;47158;-54
2022/02/28 03:16:32;;;;;;;;;10.75;10.75;;;;;8.81;41.81;102165.50;2111790;27;47064;-50
2022/02/28 03:17:33;;;;;;;;;11.00;11.00;;;;;8.80;41.27;102174.31;2124927;27;47858;-52
2022/02/28 03:18:34;;;;;;;;;11.00;10.00;;;;;8.80;41.54;102169.03;2124586;27;47685;-50
2022/02/28 03:19:34;;;;;;;;;11.00;11.00;;;;;8.79;41.55;102169.91;2122072;27;47176;-54
2022/02/28 03:20:35;;;;;;;;;8.75;8.75;;;;;8.78;41.58;102169.00;2121517;27;47450;-51
2022/02/28 03:21:35;;;;;;;;;13.00;10.00;;;;;8.79;41.50;102168.13;2121740;27;47543;-51
2022/02/28 03:22:35;;;;;;;;;8.25;6.75;;;;;8.77;41.51;102161.06;2103669;28;47448;-51
2022/02/28 03:23:36;;;;;;;;;10.50;9.75;;;;;8.77;41.55;102169.00;2111594;27;48175;-51
2022/02/28 03:24:36;;;;;;;;;10.25;10.25;;;;;8.76;41.44;102159.25;2113393;27;47371;-53
2022/02/28 03:25:37;;;;;;;;;9.50;9.50;;;;;8.75;41.67;102163.66;2112723;27;47988;-50
2022/02/28 03:26:37;;;;;;;;;11.00;8.25;;;;;8.75;41.63;102163.66;2121884;27;47859;-51
2022/02/28 03:27:38;;;;;;;;;10.00;9.50;;;;;8.74;41.58;102158.38;2121698;27;45775;-52
2022/02/28 03:28:38;;;;;;;;;13.00;11.00;;;;;8.74;41.85;102161.91;2122004;27;47597;-49
2022/02/28 03:29:38;;;;;;;;;6.50;6.00;;;;;8.73;41.49;102159.25;2121808;27;48018;-53
2022/02/28 03:30:39;;;;;;;;;9.50;9.00;;;;;8.72;41.60;102158.34;2121809;27;47826;-51
2022/02/28 03:31:39;;;;;;;;;9.25;9.25;;;;;8.72;41.56;102165.41;2120135;27;47664;-50
2022/02/28 03:32:40;;;;;;;;;11.50;11.50;;;;;8.72;41.68;102162.75;2112547;27;47802;-52
2022/02/28 03:33:40;;;;;;;;;5.75;5.75;;;;;8.71;41.50;102159.22;2122140;27;46777;-52
2022/02/28 03:34:41;;;;;;;;;8.50;8.50;;;;;8.71;41.75;102161.88;2121753;27;47858;-53
2022/02/28 03:35:41;;;;;;;;;8.25;7.00;;;;;8.70;41.67;102164.50;2122544;27;47980;-51
2022/02/28 03:36:41;;;;;;;;;11.75;11.75;;;;;8.69;41.67;102160.09;2130152;27;47867;-52
2022/02/28 03:37:42;;;;;;;;;10.25;10.25;;;;;8.68;41.56;102158.31;2126383;27;47758;-49
2022/02/28 03:38:43;;;;;;;;;11.00;10.50;;;;;8.68;41.49;102159.22;2121623;27;47664;-52
2022/02/28 03:39:43;;;;;;;;;10.50;9.75;;;;;8.68;41.70;102159.22;2121686;27;47483;-50
2022/02/28 03:40:45;;;;;;;;;9.25;9.25;;;;;8.67;41.75;102157.44;2121680;27;47432;-50
2022/02/28 03:41:45;;;;;;;;;11.20;9.00;;;;;8.66;41.43;102160.97;2121959;27;47264;-50
2022/02/28 03:42:45;;;;;;;;;11.00;11.00;;;;;8.67;41.50;102159.19;2101095;28;47815;-50
2022/02/28 03:43:46;;;;;;;;;9.00;9.00;;;;;8.66;41.49;102155.66;2103985;28;47875;-52
2022/02/28 03:44:46;;;;;;;;;10.25;10.00;;;;;8.65;41.59;102159.19;2121613;27;47727;-53
2022/02/28 03:45:47;;;;;;;;;13.50;10.50;;;;;8.66;41.60;102154.78;2125748;27;47741;-56
2022/02/28 03:46:51;;;;;;;;;11.75;10.50;;;;;8.66;41.74;102154.78;2129973;27;47346;-52
2022/02/28 03:47:52;;;;;;;;;10.80;10.80;;;;;8.65;41.75;102161.84;2128015;27;47710;-53
2022/02/28 03:48:52;;;;;;;;;12.25;11.75;;;;;8.64;41.77;102152.13;2121772;27;47410;-50
2022/02/28 03:49:53;;;;;;;;;10.00;7.50;;;;;8.64;41.75;102151.22;2121780;27;47767;-50
2022/02/28 03:50:53;;;;;;;;;7.00;7.00;;;;;8.65;41.62;102153.00;2121931;27;47775;-50
2022/02/28 03:51:54;;;;;;;;;11.25;10.00;;;;;8.63;41.74;102146.78;2121416;27;47416;-49
2022/02/28 03:52:55;;;;;;;;;10.80;7.80;;;;;8.63;41.52;102150.31;2122039;27;46334;-53
2022/02/28 03:53:55;;;;;;;;;9.75;6.25;;;;;8.64;41.75;102146.84;2121434;27;47478;-50
2022/02/28 03:54:56;;;;;;;;;9.00;7.75;;;;;8.65;41.55;102153.00;2121772;27;47431;-51
2022/02/28 03:55:56;;;;;;;;;7.75;7.75;;;;;8.63;41.53;102147.69;2121707;27;47679;-51
2022/02/28 03:56:57;;;;;;;;;10.25;10.25;;;;;8.63;41.31;102145.03;2121628;27;47824;-55
2022/02/28 03:57:57;;;;;;;;;9.25;9.25;;;;;8.62;41.33;102143.25;2121948;27;47621;-53
2022/02/28 03:58:57;;;;;;;;;11.50;10.00;;;;;8.62;41.39;102137.97;2094360;28;47739;-50
2022/02/28 03:59:58;;;;;;;;;10.25;10.25;;;;;8.61;41.95;102145.88;2095100;28;47624;-52
2022/02/28 04:00:58;;;;;;;;;8.25;8.25;;;;;8.61;41.59;102144.13;2124907;27;48091;-51
2022/02/28 04:01:59;;;;;;;;;12.25;10.25;;;;;8.60;41.72;102149.41;2130243;27;47775;-51
2022/02/28 04:02:59;;;;;;;;;11.00;9.75;;;;;8.59;41.61;102147.66;2123060;27;47736;-51
2022/02/28 04:04:01;;;;;;;;;10.25;9.75;;;;;8.58;41.71;102152.06;2121491;27;47328;-54
2022/02/28 04:05:02;;;;;;;;;10.00;8.80;;;;;8.58;41.45;102153.81;2112558;27;47481;-49
2022/02/28 04:06:02;;;;;;;;;11.50;11.50;;;;;8.58;41.38;102151.16;2112440;27;47162;-49
2022/02/28 04:07:03;;;;;;;;;9.00;9.00;;;;;8.58;41.56;102159.09;2120762;27;47533;-51
2022/02/28 04:08:04;;;;;;;;;8.20;8.20;;;;;8.58;41.80;102152.06;2129982;27;47386;-51
2022/02/28 04:09:05;;;;;;;;;10.25;9.25;;;;;8.57;41.56;102150.28;2103319;28;45814;-49
2022/02/28 04:10:06;;;;;;;;;8.80;7.20;;;;;8.57;41.42;102155.56;2103278;28;47805;-53
2022/02/28 04:11:07;;;;;;;;;11.20;10.80;;;;;8.58;41.57;102148.53;2103330;28;47370;-51
2022/02/28 04:12:08;;;;;;;;;11.00;9.50;;;;;8.58;41.68;102151.16;2103499;28;48085;-52
2022/02/28 04:13:09;;;;;;;;;9.80;8.00;;;;;8.57;41.72;102149.41;2103930;28;47930;-49
2022/02/28 04:14:09;;;;;;;;;10.25;8.25;;;;;8.55;41.76;102146.75;2103235;28;47610;-50
2022/02/28 04:15:10;;;;;;;;;11.50;10.25;;;;;8.54;41.64;102151.16;2103517;28;47446;-54
2022/02/28 04:16:11;;;;;;;;;8.00;8.00;;;;;8.55;41.54;102152.03;2103479;28;47487;-53
2022/02/28 04:17:11;;;;;;;;;10.00;9.25;;;;;8.54;41.77;102159.09;2103775;28;47421;-52
2022/02/28 04:18:11;;;;;;;;;10.00;10.00;;;;;8.53;41.72;102159.97;2103844;27;47604;-51
2022/02/28 04:19:14;;;;;;;;;6.00;6.00;;;;;8.53;41.77;102162.59;2103592;28;47249;-50
2022/02/28 04:20:14;;;;;;;;;10.80;8.60;;;;;8.51;41.81;102159.06;2103318;28;47635;-52
2022/02/28 04:21:15;;;;;;;;;12.50;11.25;;;;;8.51;41.69;102159.06;2089668;28;48094;-50
2022/02/28 04:22:15;;;;;;;;;11.25;8.50;;;;;8.51;41.75;102153.78;2086837;28;48088;-51
2022/02/28 04:23:16;;;;;;;;;8.00;8.00;;;;;8.51;41.83;102155.50;2095527;28;47753;-51
2022/02/28 04:24:17;;;;;;;;;11.00;9.25;;;;;8.50;41.36;102157.25;2099055;28;46992;-50
2022/02/28 04:25:17;;;;;;;;;10.50;9.00;;;;;8.50;41.68;102159.91;2103564;28;47548;-53
2022/02/28 04:26:18;;;;;;;;;11.25;11.25;;;;;8.51;41.77;102161.72;2103351;28;47127;-52
2022/02/28 04:27:19;;;;;;;;;10.80;10.40;;;;;8.50;41.78;102161.66;2103443;28;48620;-51
2022/02/28 04:28:19;;;;;;;;;10.00;10.00;;;;;8.50;41.99;102167.84;2103622;28;47700;-55
2022/02/28 04:29:20;;;;;;;;;7.00;6.25;;;;;8.50;41.69;102164.31;2103162;28;47286;-52
2022/02/28 04:30:20;;;;;;;;;11.50;10.50;;;;;8.49;41.79;102163.41;2103394;28;47562;-53
2022/02/28 04:31:20;;;;;;;;;10.75;10.00;;;;;8.48;41.67;102164.28;2103467;28;47439;-54
2022/02/28 04:32:21;;;;;;;;;7.00;7.00;;;;;8.49;41.58;102167.81;2100980;28;46840;-53
2022/02/28 04:33:22;;;;;;;;;10.75;10.75;;;;;8.48;41.87;102166.06;2103627;28;47409;-52
2022/02/28 04:34:22;;;;;;;;;10.25;10.25;;;;;8.46;41.65;102168.69;2103162;28;47970;-51
2022/02/28 04:35:23;;;;;;;;;10.00;8.25;;;;;8.46;41.78;102163.41;2103204;28;47674;-51
2022/02/28 04:36:23;;;;;;;;;10.00;9.75;;;;;8.46;41.78;102163.41;2103750;28;47376;-53
2022/02/28 04:37:23;;;;;;;;;10.75;10.75;;;;;8.46;42.20;102167.81;2086166;28;47544;-53
2022/02/28 04:38:24;;;;;;;;;11.50;9.50;;;;;8.45;41.72;102166.91;2086276;28;47926;-49
2022/02/28 04:39:24;;;;;;;;;6.75;6.75;;;;;8.45;41.84;102171.31;2103331;28;47148;-52
2022/02/28 04:40:25;;;;;;;;;4.00;4.00;;;;;8.44;41.88;102162.50;2105165;27;47304;-51
2022/02/28 04:41:25;;;;;;;;;9.00;9.00;;;;;8.45;41.74;102171.31;2121463;27;47739;-50